sensor_id;sensor_type;location;lat;lon;timestamp;temperature;humidity
56137;DHT22;42008;52.934;5.884;2022-11-09T00:01:20;13.50;99.90
56137;DHT22;42008;52.934;5.884;2022-11-09T00:03:46;16.20;99.90
56137;DHT22;42008;52.934;5.884;2022-11-09T00:06:12;13.80;99.90
56137;DHT22;42008;52.934;5.884;2022-11-09T00:08:39;14.80;99.90
56137;DHT22;42008;52.934;5.884;2022-11-09T00:11:09;13.60;99.90
56137;DHT22;42008;52.934;5.884;2022-11-09T00:13:41;12.90;99.90
56137;DHT22;42008;52.934;5.884;2022-11-09T00:16:10;13.80;99.90
56137;DHT22;42008;52.934;5.884;2022-11-09T00:18:36;13.00;99.90
56137;DHT22;42008;52.934;5.884;2022-11-09T00:21:12;16.90;99.90
56137;DHT22;42008;52.934;5.884;2022-11-09T00:23:38;12.40;99.90
56137;DHT22;42008;52.934;5.884;2022-11-09T00:26:06;14.80;99.90
56137;DHT22;42008;52.934;5.884;2022-11-09T00:28:33;13.40;99.90
56137;DHT22;42008;52.934;5.884;2022-11-09T00:31:07;13.50;99.90
56137;DHT22;42008;52.934;5.884;2022-11-09T00:33:33;15.40;99.90
56137;DHT22;42008;52.934;5.884;2022-11-09T00:36:03;13.00;99.90
56137;DHT22;42008;52.934;5.884;2022-11-09T00:38:32;14.70;99.90
56137;DHT22;42008;52.934;5.884;2022-11-09T00:41:02;13.10;99.90
56137;DHT22;42008;52.934;5.884;2022-11-09T00:43:27;15.10;99.90
56137;DHT22;42008;52.934;5.884;2022-11-09T00:45:53;14.10;99.90
56137;DHT22;42008;52.934;5.884;2022-11-09T00:48:19;15.10;99.90
56137;DHT22;42008;52.934;5.884;2022-11-09T00:50:49;13.10;99.90
56137;DHT22;42008;52.934;5.884;2022-11-09T00:53:15;15.30;99.90
56137;DHT22;42008;52.934;5.884;2022-11-09T00:55:40;12.80;99.90
56137;DHT22;42008;52.934;5.884;2022-11-09T00:58:06;15.10;99.90
56137;DHT22;42008;52.934;5.884;2022-11-09T01:00:31;16.10;99.90
56137;DHT22;42008;52.934;5.884;2022-11-09T01:02:57;15.50;99.90
56137;DHT22;42008;52.934;5.884;2022-11-09T01:05:22;14.60;99.90
56137;DHT22;42008;52.934;5.884;2022-11-09T01:07:49;15.90;99.90
56137;DHT22;42008;52.934;5.884;2022-11-09T01:10:15;13.80;99.90
56137;DHT22;42008;52.934;5.884;2022-11-09T01:12:40;15.00;99.90
56137;DHT22;42008;52.934;5.884;2022-11-09T01:15:06;13.80;99.90
56137;DHT22;42008;52.934;5.884;2022-11-09T01:17:32;14.80;99.90
56137;DHT22;42008;52.934;5.884;2022-11-09T01:19:57;16.30;99.90
56137;DHT22;42008;52.934;5.884;2022-11-09T01:22:23;15.80;99.90
56137;DHT22;42008;52.934;5.884;2022-11-09T01:24:49;15.10;99.90
56137;DHT22;42008;52.934;5.884;2022-11-09T01:27:14;17.10;99.90
56137;DHT22;42008;52.934;5.884;2022-11-09T01:29:40;16.90;99.90
56137;DHT22;42008;52.934;5.884;2022-11-09T01:32:06;15.80;99.90
56137;DHT22;42008;52.934;5.884;2022-11-09T01:34:31;14.90;99.90
56137;DHT22;42008;52.934;5.884;2022-11-09T01:36:57;16.80;99.90
56137;DHT22;42008;52.934;5.884;2022-11-09T01:39:23;16.50;99.90
56137;DHT22;42008;52.934;5.884;2022-11-09T01:41:49;15.70;99.90
56137;DHT22;42008;52.934;5.884;2022-11-09T01:44:17;16.10;99.90
56137;DHT22;42008;52.934;5.884;2022-11-09T01:46:54;15.40;99.90
56137;DHT22;42008;52.934;5.884;2022-11-09T01:49:35;16.40;99.90
56137;DHT22;42008;52.934;5.884;2022-11-09T01:52:18;16.10;99.90
56137;DHT22;42008;52.934;5.884;2022-11-09T01:54:48;16.00;99.90
56137;DHT22;42008;52.934;5.884;2022-11-09T01:57:19;16.70;99.90
56137;DHT22;42008;52.934;5.884;2022-11-09T01:59:51;18.60;99.90
56137;DHT22;42008;52.934;5.884;2022-11-09T02:02:17;16.50;99.90
56137;DHT22;42008;52.934;5.884;2022-11-09T02:04:48;16.30;99.90
56137;DHT22;42008;52.934;5.884;2022-11-09T02:07:14;15.20;99.90
56137;DHT22;42008;52.934;5.884;2022-11-09T02:12:30;16.30;99.90
56137;DHT22;42008;52.934;5.884;2022-11-09T02:14:59;16.60;99.90
56137;DHT22;42008;52.934;5.884;2022-11-09T02:17:26;17.20;99.90
56137;DHT22;42008;52.934;5.884;2022-11-09T02:19:51;15.30;99.90
56137;DHT22;42008;52.934;5.884;2022-11-09T02:22:17;14.90;99.90
56137;DHT22;42008;52.934;5.884;2022-11-09T02:24:43;15.60;99.90
56137;DHT22;42008;52.934;5.884;2022-11-09T02:27:08;14.40;99.90
56137;DHT22;42008;52.934;5.884;2022-11-09T02:29:37;15.30;99.90
56137;DHT22;42008;52.934;5.884;2022-11-09T02:32:21;14.90;99.90
56137;DHT22;42008;52.934;5.884;2022-11-09T02:34:48;17.20;99.90
56137;DHT22;42008;52.934;5.884;2022-11-09T02:38:08;16.30;99.90
56137;DHT22;42008;52.934;5.884;2022-11-09T02:40:16;15.80;99.90
56137;DHT22;42008;52.934;5.884;2022-11-09T02:42:44;15.70;99.90
56137;DHT22;42008;52.934;5.884;2022-11-09T02:45:10;16.70;99.90
56137;DHT22;42008;52.934;5.884;2022-11-09T02:47:36;15.90;99.90
56137;DHT22;42008;52.934;5.884;2022-11-09T02:50:02;16.50;99.90
56137;DHT22;42008;52.934;5.884;2022-11-09T02:52:28;15.10;99.90
56137;DHT22;42008;52.934;5.884;2022-11-09T02:54:53;15.20;99.90
56137;DHT22;42008;52.934;5.884;2022-11-09T02:57:19;13.40;99.90
56137;DHT22;42008;52.934;5.884;2022-11-09T02:59:44;15.80;99.90
56137;DHT22;42008;52.934;5.884;2022-11-09T03:02:10;13.50;99.90
56137;DHT22;42008;52.934;5.884;2022-11-09T03:04:36;15.00;99.90
56137;DHT22;42008;52.934;5.884;2022-11-09T03:07:01;15.40;99.90
56137;DHT22;42008;52.934;5.884;2022-11-09T03:09:27;14.70;99.90
56137;DHT22;42008;52.934;5.884;2022-11-09T03:11:52;13.00;99.90
56137;DHT22;42008;52.934;5.884;2022-11-09T03:14:18;12.70;99.90
56137;DHT22;42008;52.934;5.884;2022-11-09T03:16:43;14.60;99.90
56137;DHT22;42008;52.934;5.884;2022-11-09T03:19:10;13.70;99.90
56137;DHT22;42008;52.934;5.884;2022-11-09T03:21:36;13.30;99.90
56137;DHT22;42008;52.934;5.884;2022-11-09T03:24:01;13.00;99.90
56137;DHT22;42008;52.934;5.884;2022-11-09T03:26:27;14.50;99.90
56137;DHT22;42008;52.934;5.884;2022-11-09T03:28:53;12.90;99.90
56137;DHT22;42008;52.934;5.884;2022-11-09T03:31:18;15.00;99.90
56137;DHT22;42008;52.934;5.884;2022-11-09T03:33:44;12.50;99.90
56137;DHT22;42008;52.934;5.884;2022-11-09T03:36:09;11.50;99.90
56137;DHT22;42008;52.934;5.884;2022-11-09T03:38:35;14.70;99.90
56137;DHT22;42008;52.934;5.884;2022-11-09T03:41:01;12.80;99.90
56137;DHT22;42008;52.934;5.884;2022-11-09T03:43:27;15.00;99.90
56137;DHT22;42008;52.934;5.884;2022-11-09T03:45:54;12.80;99.90
56137;DHT22;42008;52.934;5.884;2022-11-09T03:48:20;13.40;99.90
56137;DHT22;42008;52.934;5.884;2022-11-09T03:50:45;12.60;99.90
56137;DHT22;42008;52.934;5.884;2022-11-09T03:53:12;13.30;99.90
56137;DHT22;42008;52.934;5.884;2022-11-09T03:55:38;12.70;99.90
56137;DHT22;42008;52.934;5.884;2022-11-09T03:58:05;12.50;99.90
56137;DHT22;42008;52.934;5.884;2022-11-09T04:00:31;12.60;99.90
56137;DHT22;42008;52.934;5.884;2022-11-09T04:02:57;12.70;99.90
56137;DHT22;42008;52.934;5.884;2022-11-09T04:05:23;13.40;99.90
56137;DHT22;42008;52.934;5.884;2022-11-09T04:07:54;12.70;99.90
56137;DHT22;42008;52.934;5.884;2022-11-09T04:10:21;12.80;99.90
56137;DHT22;42008;52.934;5.884;2022-11-09T04:12:47;12.70;99.90
56137;DHT22;42008;52.934;5.884;2022-11-09T04:15:14;12.50;99.90
56137;DHT22;42008;52.934;5.884;2022-11-09T04:17:40;12.40;99.90
56137;DHT22;42008;52.934;5.884;2022-11-09T04:20:06;13.30;99.90
56137;DHT22;42008;52.934;5.884;2022-11-09T04:22:33;12.80;99.90
56137;DHT22;42008;52.934;5.884;2022-11-09T04:24:59;11.90;99.90
56137;DHT22;42008;52.934;5.884;2022-11-09T04:27:24;12.40;99.90
56137;DHT22;42008;52.934;5.884;2022-11-09T04:29:50;13.40;99.90
56137;DHT22;42008;52.934;5.884;2022-11-09T04:32:15;13.90;99.90
56137;DHT22;42008;52.934;5.884;2022-11-09T04:34:59;12.20;99.90
56137;DHT22;42008;52.934;5.884;2022-11-09T04:37:25;13.40;99.90
56137;DHT22;42008;52.934;5.884;2022-11-09T04:39:50;13.60;99.90
56137;DHT22;42008;52.934;5.884;2022-11-09T04:42:16;12.30;99.90
56137;DHT22;42008;52.934;5.884;2022-11-09T04:44:42;12.40;99.90
56137;DHT22;42008;52.934;5.884;2022-11-09T04:47:07;13.70;99.90
56137;DHT22;42008;52.934;5.884;2022-11-09T04:49:33;11.80;99.90
56137;DHT22;42008;52.934;5.884;2022-11-09T04:51:58;13.60;99.90
56137;DHT22;42008;52.934;5.884;2022-11-09T04:54:24;12.70;99.90
56137;DHT22;42008;52.934;5.884;2022-11-09T04:56:49;13.00;99.90
56137;DHT22;42008;52.934;5.884;2022-11-09T04:59:15;13.90;99.90
56137;DHT22;42008;52.934;5.884;2022-11-09T05:01:40;12.80;99.90
56137;DHT22;42008;52.934;5.884;2022-11-09T05:04:06;11.30;99.90
56137;DHT22;42008;52.934;5.884;2022-11-09T05:06:31;12.40;99.90
56137;DHT22;42008;52.934;5.884;2022-11-09T05:09:05;13.70;99.90
56137;DHT22;42008;52.934;5.884;2022-11-09T05:11:32;12.70;99.90
56137;DHT22;42008;52.934;5.884;2022-11-09T05:13:58;12.80;99.90
56137;DHT22;42008;52.934;5.884;2022-11-09T05:16:24;12.40;99.90
56137;DHT22;42008;52.934;5.884;2022-11-09T05:18:50;12.80;99.90
56137;DHT22;42008;52.934;5.884;2022-11-09T05:21:16;11.90;99.90
56137;DHT22;42008;52.934;5.884;2022-11-09T05:23:41;14.50;99.90
56137;DHT22;42008;52.934;5.884;2022-11-09T05:26:31;12.80;99.90
56137;DHT22;42008;52.934;5.884;2022-11-09T05:28:58;12.40;99.90
56137;DHT22;42008;52.934;5.884;2022-11-09T05:31:24;12.50;99.90
56137;DHT22;42008;52.934;5.884;2022-11-09T05:33:51;12.30;99.90
56137;DHT22;42008;52.934;5.884;2022-11-09T05:36:17;13.30;99.90
56137;DHT22;42008;52.934;5.884;2022-11-09T05:38:43;13.80;99.90
56137;DHT22;42008;52.934;5.884;2022-11-09T05:41:09;12.10;99.90
56137;DHT22;42008;52.934;5.884;2022-11-09T05:43:35;13.00;99.90
56137;DHT22;42008;52.934;5.884;2022-11-09T05:46:00;13.10;99.90
56137;DHT22;42008;52.934;5.884;2022-11-09T05:48:26;12.00;99.90
56137;DHT22;42008;52.934;5.884;2022-11-09T05:50:52;12.70;99.90
56137;DHT22;42008;52.934;5.884;2022-11-09T05:53:17;13.90;99.90
56137;DHT22;42008;52.934;5.884;2022-11-09T05:55:43;14.40;99.90
56137;DHT22;42008;52.934;5.884;2022-11-09T05:58:09;12.30;99.90
56137;DHT22;42008;52.934;5.884;2022-11-09T06:00:35;12.80;99.90
56137;DHT22;42008;52.934;5.884;2022-11-09T06:03:05;13.00;99.90
56137;DHT22;42008;52.934;5.884;2022-11-09T06:05:32;13.00;99.90
56137;DHT22;42008;52.934;5.884;2022-11-09T06:08:10;14.50;99.90
56137;DHT22;42008;52.934;5.884;2022-11-09T06:10:37;12.80;99.90
56137;DHT22;42008;52.934;5.884;2022-11-09T06:13:03;14.60;99.90
56137;DHT22;42008;52.934;5.884;2022-11-09T06:15:29;13.20;99.90
56137;DHT22;42008;52.934;5.884;2022-11-09T06:17:57;12.30;99.90
56137;DHT22;42008;52.934;5.884;2022-11-09T06:20:23;12.90;99.90
56137;DHT22;42008;52.934;5.884;2022-11-09T06:22:54;14.90;99.90
56137;DHT22;42008;52.934;5.884;2022-11-09T06:25:20;14.00;99.90
56137;DHT22;42008;52.934;5.884;2022-11-09T06:27:47;11.60;99.90
56137;DHT22;42008;52.934;5.884;2022-11-09T06:30:13;13.00;99.90
56137;DHT22;42008;52.934;5.884;2022-11-09T06:32:39;12.60;99.90
56137;DHT22;42008;52.934;5.884;2022-11-09T06:35:05;15.20;99.90
56137;DHT22;42008;52.934;5.884;2022-11-09T06:37:31;12.80;99.90
56137;DHT22;42008;52.934;5.884;2022-11-09T06:39:56;14.80;99.90
56137;DHT22;42008;52.934;5.884;2022-11-09T06:42:22;12.60;99.90
56137;DHT22;42008;52.934;5.884;2022-11-09T06:44:48;14.00;99.90
56137;DHT22;42008;52.934;5.884;2022-11-09T06:47:13;11.20;99.90
56137;DHT22;42008;52.934;5.884;2022-11-09T06:49:39;13.70;99.90
56137;DHT22;42008;52.934;5.884;2022-11-09T06:52:04;12.70;99.90
56137;DHT22;42008;52.934;5.884;2022-11-09T06:54:30;12.20;99.90
56137;DHT22;42008;52.934;5.884;2022-11-09T06:56:57;12.70;99.90
56137;DHT22;42008;52.934;5.884;2022-11-09T06:59:22;11.80;99.90
56137;DHT22;42008;52.934;5.884;2022-11-09T07:01:48;11.90;99.90
56137;DHT22;42008;52.934;5.884;2022-11-09T07:04:14;14.10;99.90
56137;DHT22;42008;52.934;5.884;2022-11-09T07:06:40;12.00;99.90
56137;DHT22;42008;52.934;5.884;2022-11-09T07:09:06;12.70;99.90
56137;DHT22;42008;52.934;5.884;2022-11-09T07:11:32;12.70;99.90
56137;DHT22;42008;52.934;5.884;2022-11-09T07:13:58;11.90;99.90
56137;DHT22;42008;52.934;5.884;2022-11-09T07:16:24;13.20;99.90
56137;DHT22;42008;52.934;5.884;2022-11-09T07:18:50;12.70;99.90
56137;DHT22;42008;52.934;5.884;2022-11-09T07:21:15;12.20;99.90
56137;DHT22;42008;52.934;5.884;2022-11-09T07:23:41;12.80;99.90
56137;DHT22;42008;52.934;5.884;2022-11-09T07:26:07;11.20;99.90
56137;DHT22;42008;52.934;5.884;2022-11-09T07:28:33;11.10;99.90
56137;DHT22;42008;52.934;5.884;2022-11-09T07:30:59;13.90;99.90
56137;DHT22;42008;52.934;5.884;2022-11-09T07:33:25;12.70;99.90
56137;DHT22;42008;52.934;5.884;2022-11-09T07:35:51;13.30;99.90
56137;DHT22;42008;52.934;5.884;2022-11-09T07:38:17;13.20;99.90
56137;DHT22;42008;52.934;5.884;2022-11-09T07:40:44;11.30;99.90
56137;DHT22;42008;52.934;5.884;2022-11-09T07:43:11;11.50;99.90
56137;DHT22;42008;52.934;5.884;2022-11-09T07:45:37;14.70;99.90
56137;DHT22;42008;52.934;5.884;2022-11-09T07:48:09;14.50;99.90
56137;DHT22;42008;52.934;5.884;2022-11-09T07:50:39;13.20;99.90
56137;DHT22;42008;52.934;5.884;2022-11-09T07:53:05;13.90;99.90
56137;DHT22;42008;52.934;5.884;2022-11-09T07:55:34;13.20;99.90
56137;DHT22;42008;52.934;5.884;2022-11-09T07:58:10;12.90;99.90
56137;DHT22;42008;52.934;5.884;2022-11-09T08:00:40;14.30;99.90
56137;DHT22;42008;52.934;5.884;2022-11-09T08:03:06;11.80;99.90
56137;DHT22;42008;52.934;5.884;2022-11-09T08:05:32;13.70;99.90
56137;DHT22;42008;52.934;5.884;2022-11-09T08:08:00;12.40;99.90
56137;DHT22;42008;52.934;5.884;2022-11-09T08:10:27;12.90;99.90
56137;DHT22;42008;52.934;5.884;2022-11-09T08:12:57;14.90;99.90
56137;DHT22;42008;52.934;5.884;2022-11-09T08:15:23;12.40;99.90
56137;DHT22;42008;52.934;5.884;2022-11-09T08:17:49;12.80;99.90
56137;DHT22;42008;52.934;5.884;2022-11-09T08:20:16;14.10;99.90
56137;DHT22;42008;52.934;5.884;2022-11-09T08:22:42;12.60;99.90
56137;DHT22;42008;52.934;5.884;2022-11-09T08:25:09;13.60;99.90
56137;DHT22;42008;52.934;5.884;2022-11-09T08:27:35;12.70;99.90
56137;DHT22;42008;52.934;5.884;2022-11-09T08:30:06;13.20;99.90
56137;DHT22;42008;52.934;5.884;2022-11-09T08:32:32;12.50;99.90
56137;DHT22;42008;52.934;5.884;2022-11-09T08:34:58;13.20;99.90
56137;DHT22;42008;52.934;5.884;2022-11-09T08:37:23;13.40;99.90
56137;DHT22;42008;52.934;5.884;2022-11-09T08:39:49;13.10;99.90
56137;DHT22;42008;52.934;5.884;2022-11-09T08:42:15;13.30;99.90
56137;DHT22;42008;52.934;5.884;2022-11-09T08:44:40;14.50;99.90
56137;DHT22;42008;52.934;5.884;2022-11-09T08:47:06;13.10;99.90
56137;DHT22;42008;52.934;5.884;2022-11-09T08:49:31;14.40;99.90
56137;DHT22;42008;52.934;5.884;2022-11-09T08:51:57;14.30;99.90
56137;DHT22;42008;52.934;5.884;2022-11-09T08:54:23;14.40;99.90
56137;DHT22;42008;52.934;5.884;2022-11-09T08:56:48;13.70;99.90
56137;DHT22;42008;52.934;5.884;2022-11-09T08:59:14;12.80;99.90
56137;DHT22;42008;52.934;5.884;2022-11-09T09:01:40;14.20;99.90
56137;DHT22;42008;52.934;5.884;2022-11-09T09:04:05;13.20;99.90
56137;DHT22;42008;52.934;5.884;2022-11-09T09:06:31;13.40;99.90
56137;DHT22;42008;52.934;5.884;2022-11-09T09:08:56;12.70;99.90
56137;DHT22;42008;52.934;5.884;2022-11-09T09:11:22;14.20;99.90
56137;DHT22;42008;52.934;5.884;2022-11-09T09:13:48;15.30;99.90
56137;DHT22;42008;52.934;5.884;2022-11-09T09:16:14;13.20;99.90
56137;DHT22;42008;52.934;5.884;2022-11-09T09:18:40;14.70;99.90
56137;DHT22;42008;52.934;5.884;2022-11-09T09:21:07;13.60;99.90
56137;DHT22;42008;52.934;5.884;2022-11-09T09:23:33;13.70;99.90
56137;DHT22;42008;52.934;5.884;2022-11-09T09:25:58;12.90;99.90
56137;DHT22;42008;52.934;5.884;2022-11-09T09:28:24;13.70;99.90
56137;DHT22;42008;52.934;5.884;2022-11-09T09:30:49;14.70;99.90
56137;DHT22;42008;52.934;5.884;2022-11-09T09:33:15;14.50;99.90
56137;DHT22;42008;52.934;5.884;2022-11-09T09:35:40;13.70;99.90
56137;DHT22;42008;52.934;5.884;2022-11-09T09:38:07;15.50;99.90
56137;DHT22;42008;52.934;5.884;2022-11-09T09:40:37;14.80;99.90
56137;DHT22;42008;52.934;5.884;2022-11-09T09:43:04;14.30;99.90
56137;DHT22;42008;52.934;5.884;2022-11-09T09:45:33;13.70;99.90
56137;DHT22;42008;52.934;5.884;2022-11-09T09:48:13;13.00;99.90
56137;DHT22;42008;52.934;5.884;2022-11-09T09:51:07;13.10;99.90
56137;DHT22;42008;52.934;5.884;2022-11-09T09:53:44;14.50;99.90
56137;DHT22;42008;52.934;5.884;2022-11-09T09:56:22;14.60;99.90
56137;DHT22;42008;52.934;5.884;2022-11-09T09:58:55;14.30;99.90
56137;DHT22;42008;52.934;5.884;2022-11-09T10:01:23;15.00;99.90
56137;DHT22;42008;52.934;5.884;2022-11-09T10:03:51;15.20;99.90
56137;DHT22;42008;52.934;5.884;2022-11-09T10:17:10;13.70;99.90
56137;DHT22;42008;52.934;5.884;2022-11-09T10:19:55;14.50;99.90
56137;DHT22;42008;52.934;5.884;2022-11-09T10:23:24;13.60;99.90
56137;DHT22;42008;52.934;5.884;2022-11-09T10:25:26;13.20;99.90
56137;DHT22;42008;52.934;5.884;2022-11-09T10:28:03;14.40;99.90
56137;DHT22;42008;52.934;5.884;2022-11-09T10:30:32;14.80;99.90
56137;DHT22;42008;52.934;5.884;2022-11-09T10:35:42;15.80;99.90
56137;DHT22;42008;52.934;5.884;2022-11-09T10:38:22;14.70;99.90
56137;DHT22;42008;52.934;5.884;2022-11-09T10:40:54;13.80;99.90
56137;DHT22;42008;52.934;5.884;2022-11-09T10:43:21;13.40;99.90
56137;DHT22;42008;52.934;5.884;2022-11-09T10:46:01;15.50;99.90
56137;DHT22;42008;52.934;5.884;2022-11-09T10:48:32;15.30;99.90
56137;DHT22;42008;52.934;5.884;2022-11-09T10:50:58;13.50;99.90
56137;DHT22;42008;52.934;5.884;2022-11-09T10:53:26;13.90;99.90
56137;DHT22;42008;52.934;5.884;2022-11-09T10:55:57;13.30;99.90
56137;DHT22;42008;52.934;5.884;2022-11-09T10:58:27;13.80;99.90
56137;DHT22;42008;52.934;5.884;2022-11-09T11:03:32;14.20;99.90
56137;DHT22;42008;52.934;5.884;2022-11-09T11:11:26;13.90;99.90
56137;DHT22;42008;52.934;5.884;2022-11-09T11:16:50;14.30;99.90
56137;DHT22;42008;52.934;5.884;2022-11-09T11:19:38;12.90;99.90
56137;DHT22;42008;52.934;5.884;2022-11-09T11:24:45;15.40;99.90
56137;DHT22;42008;52.934;5.884;2022-11-09T11:30:34;14.50;99.90
56137;DHT22;42008;52.934;5.884;2022-11-09T11:33:13;14.80;99.90
56137;DHT22;42008;52.934;5.884;2022-11-09T11:35:44;15.30;99.90
56137;DHT22;42008;52.934;5.884;2022-11-09T11:38:26;14.80;99.90
56137;DHT22;42008;52.934;5.884;2022-11-09T11:46:49;14.20;99.90
56137;DHT22;42008;52.934;5.884;2022-11-09T12:11:37;15.40;99.90
56137;DHT22;42008;52.934;5.884;2022-11-09T12:14:27;14.30;99.90
56137;DHT22;42008;52.934;5.884;2022-11-09T12:19:39;14.50;99.90
56137;DHT22;42008;52.934;5.884;2022-11-09T12:25:18;14.10;99.90
56137;DHT22;42008;52.934;5.884;2022-11-09T12:30:31;12.30;99.90
56137;DHT22;42008;52.934;5.884;2022-11-09T12:33:07;14.40;99.90
56137;DHT22;42008;52.934;5.884;2022-11-09T12:35:44;14.30;99.90
56137;DHT22;42008;52.934;5.884;2022-11-09T12:41:00;12.90;99.90
56137;DHT22;42008;52.934;5.884;2022-11-09T12:43:51;12.60;99.90
56137;DHT22;42008;52.934;5.884;2022-11-09T12:46:21;12.90;99.90
56137;DHT22;42008;52.934;5.884;2022-11-09T12:48:49;13.70;99.90
56137;DHT22;42008;52.934;5.884;2022-11-09T12:51:15;13.20;99.90
56137;DHT22;42008;52.934;5.884;2022-11-09T12:53:41;14.50;99.90
56137;DHT22;42008;52.934;5.884;2022-11-09T12:56:14;12.70;99.90
56137;DHT22;42008;52.934;5.884;2022-11-09T12:58:42;14.90;99.90
56137;DHT22;42008;52.934;5.884;2022-11-09T13:01:42;12.60;99.90
56137;DHT22;42008;52.934;5.884;2022-11-09T13:04:00;13.70;99.90
56137;DHT22;42008;52.934;5.884;2022-11-09T13:06:28;12.60;99.90
56137;DHT22;42008;52.934;5.884;2022-11-09T13:11:51;12.80;99.90
56137;DHT22;42008;52.934;5.884;2022-11-09T13:14:34;13.80;99.90
56137;DHT22;42008;52.934;5.884;2022-11-09T13:19:57;13.00;99.90
56137;DHT22;42008;52.934;5.884;2022-11-09T13:24:54;13.50;99.90
56137;DHT22;42008;52.934;5.884;2022-11-09T13:27:42;16.40;99.90
56137;DHT22;42008;52.934;5.884;2022-11-09T13:35:57;15.30;99.90
56137;DHT22;42008;52.934;5.884;2022-11-09T13:38:29;12.70;99.90
56137;DHT22;42008;52.934;5.884;2022-11-09T13:41:56;13.60;99.90
56137;DHT22;42008;52.934;5.884;2022-11-09T13:44:11;13.40;99.90
56137;DHT22;42008;52.934;5.884;2022-11-09T13:46:38;14.20;99.90
56137;DHT22;42008;52.934;5.884;2022-11-09T13:49:43;12.70;99.90
56137;DHT22;42008;52.934;5.884;2022-11-09T13:59:46;11.20;99.90
56137;DHT22;42008;52.934;5.884;2022-11-09T14:19:24;17.30;99.90
56137;DHT22;42008;52.934;5.884;2022-11-09T14:21:52;15.80;99.90
56137;DHT22;42008;52.934;5.884;2022-11-09T14:24:23;18.20;99.90
56137;DHT22;42008;52.934;5.884;2022-11-09T14:27:01;17.80;99.90
56137;DHT22;42008;52.934;5.884;2022-11-09T14:29:28;19.40;99.90
56137;DHT22;42008;52.934;5.884;2022-11-09T14:32:21;18.20;99.90
56137;DHT22;42008;52.934;5.884;2022-11-09T14:34:47;18.60;99.90
56137;DHT22;42008;52.934;5.884;2022-11-09T14:37:13;19.30;99.90
56137;DHT22;42008;52.934;5.884;2022-11-09T14:39:40;16.80;99.90
56137;DHT22;42008;52.934;5.884;2022-11-09T14:42:06;20.50;99.90
56137;DHT22;42008;52.934;5.884;2022-11-09T14:44:40;18.60;99.90
56137;DHT22;42008;52.934;5.884;2022-11-09T14:47:17;17.70;99.90
56137;DHT22;42008;52.934;5.884;2022-11-09T14:49:44;18.90;99.90
56137;DHT22;42008;52.934;5.884;2022-11-09T14:52:17;17.10;99.90
56137;DHT22;42008;52.934;5.884;2022-11-09T14:54:46;18.70;99.90
56137;DHT22;42008;52.934;5.884;2022-11-09T14:57:14;17.40;99.90
56137;DHT22;42008;52.934;5.884;2022-11-09T14:59:42;18.10;99.90
56137;DHT22;42008;52.934;5.884;2022-11-09T15:02:12;18.10;99.90
56137;DHT22;42008;52.934;5.884;2022-11-09T15:04:57;19.70;99.90
56137;DHT22;42008;52.934;5.884;2022-11-09T15:07:26;17.00;99.90
56137;DHT22;42008;52.934;5.884;2022-11-09T15:09:57;17.70;99.90
56137;DHT22;42008;52.934;5.884;2022-11-09T15:12:24;18.50;99.90
56137;DHT22;42008;52.934;5.884;2022-11-09T15:14:54;16.50;99.90
56137;DHT22;42008;52.934;5.884;2022-11-09T15:17:43;19.50;99.90
56137;DHT22;42008;52.934;5.884;2022-11-09T15:22:54;17.70;99.90
56137;DHT22;42008;52.934;5.884;2022-11-09T15:28:16;16.10;99.90
56137;DHT22;42008;52.934;5.884;2022-11-09T15:35:50;17.50;99.90
56137;DHT22;42008;52.934;5.884;2022-11-09T15:42:01;17.80;99.90
56137;DHT22;42008;52.934;5.884;2022-11-09T15:44:26;19.20;99.90
56137;DHT22;42008;52.934;5.884;2022-11-09T15:50:25;19.20;99.90
56137;DHT22;42008;52.934;5.884;2022-11-09T15:53:38;16.60;99.90
56137;DHT22;42008;52.934;5.884;2022-11-09T15:56:51;18.40;99.90
56137;DHT22;42008;52.934;5.884;2022-11-09T15:59:24;16.90;99.90
56137;DHT22;42008;52.934;5.884;2022-11-09T16:02:10;18.60;99.90
56137;DHT22;42008;52.934;5.884;2022-11-09T16:04:36;19.20;99.90
56137;DHT22;42008;52.934;5.884;2022-11-09T16:07:12;18.90;99.90
56137;DHT22;42008;52.934;5.884;2022-11-09T16:10:24;15.80;99.90
56137;DHT22;42008;52.934;5.884;2022-11-09T16:12:55;18.20;99.90
56137;DHT22;42008;52.934;5.884;2022-11-09T16:15:22;19.40;99.90
56137;DHT22;42008;52.934;5.884;2022-11-09T16:17:48;18.50;99.90
56137;DHT22;42008;52.934;5.884;2022-11-09T16:20:19;17.40;99.90
56137;DHT22;42008;52.934;5.884;2022-11-09T16:22:45;17.80;99.90
56137;DHT22;42008;52.934;5.884;2022-11-09T16:25:11;18.00;99.90
56137;DHT22;42008;52.934;5.884;2022-11-09T16:27:37;17.40;99.90
56137;DHT22;42008;52.934;5.884;2022-11-09T16:30:05;18.20;99.90
56137;DHT22;42008;52.934;5.884;2022-11-09T16:32:33;18.20;99.90
56137;DHT22;42008;52.934;5.884;2022-11-09T16:35:05;19.10;99.90
56137;DHT22;42008;52.934;5.884;2022-11-09T16:37:38;18.40;99.90
56137;DHT22;42008;52.934;5.884;2022-11-09T16:40:12;20.30;99.90
56137;DHT22;42008;52.934;5.884;2022-11-09T16:42:40;18.00;99.90
56137;DHT22;42008;52.934;5.884;2022-11-09T16:45:12;19.40;99.90
56137;DHT22;42008;52.934;5.884;2022-11-09T16:47:43;17.70;99.90
56137;DHT22;42008;52.934;5.884;2022-11-09T16:50:10;19.90;99.90
56137;DHT22;42008;52.934;5.884;2022-11-09T16:52:35;18.20;99.90
56137;DHT22;42008;52.934;5.884;2022-11-09T16:55:02;20.00;99.90
56137;DHT22;42008;52.934;5.884;2022-11-09T16:57:28;17.00;99.90
56137;DHT22;42008;52.934;5.884;2022-11-09T16:59:54;19.70;99.90
56137;DHT22;42008;52.934;5.884;2022-11-09T17:02:19;17.20;99.90
56137;DHT22;42008;52.934;5.884;2022-11-09T17:04:45;16.50;99.90
56137;DHT22;42008;52.934;5.884;2022-11-09T17:07:11;20.30;99.90
56137;DHT22;42008;52.934;5.884;2022-11-09T17:09:36;17.40;99.90
56137;DHT22;42008;52.934;5.884;2022-11-09T17:12:02;16.90;99.90
56137;DHT22;42008;52.934;5.884;2022-11-09T17:14:29;17.40;99.90
56137;DHT22;42008;52.934;5.884;2022-11-09T17:16:55;16.20;99.90
56137;DHT22;42008;52.934;5.884;2022-11-09T17:19:21;16.20;99.90
56137;DHT22;42008;52.934;5.884;2022-11-09T17:21:46;18.50;99.90
56137;DHT22;42008;52.934;5.884;2022-11-09T17:24:12;18.90;99.90
56137;DHT22;42008;52.934;5.884;2022-11-09T17:26:38;17.60;99.90
56137;DHT22;42008;52.934;5.884;2022-11-09T17:29:04;16.40;99.90
56137;DHT22;42008;52.934;5.884;2022-11-09T17:31:29;17.30;99.90
56137;DHT22;42008;52.934;5.884;2022-11-09T17:33:55;16.20;99.90
56137;DHT22;42008;52.934;5.884;2022-11-09T17:36:21;15.80;99.90
56137;DHT22;42008;52.934;5.884;2022-11-09T17:38:47;16.60;99.90
56137;DHT22;42008;52.934;5.884;2022-11-09T17:41:16;17.30;99.90
56137;DHT22;42008;52.934;5.884;2022-11-09T17:43:42;16.50;99.90
56137;DHT22;42008;52.934;5.884;2022-11-09T17:46:18;17.50;99.90
56137;DHT22;42008;52.934;5.884;2022-11-09T17:48:45;15.80;99.90
56137;DHT22;42008;52.934;5.884;2022-11-09T17:51:12;17.60;99.90